OAS4807 SKBO-SKPP
Flight info
| Callsign | OAS4807 |
|---|---|
| Flight time | 0h 49m |
| Altitude | 25000 |
| Route | VAPOM4R OREGA Z009 KONKO DCT OBDOX DCT ANKAS |
| Aircraft | A20N/M-SDE2E3FGHIRWXY/LB1 |
Departure
| Time | 2026-05-06 15:51 |
|---|---|
| Airport | El Dorado International Airport (SKBO) |
Arrival
| Time | 2026-05-06 16:41 |
|---|---|
| Airport | Guillermo León Valencia Airport (SKPP) |
| Time | Latitude | Longitude | Altitude | Speed | Heading |
|---|---|---|---|---|---|
| 2026-05-06 15:11 | 4.69877 | -74.14451 | 8365 ft | 0 kts | 226° |
| 2026-05-06 15:35 | 4.69884 | -74.14444 | 8366 ft | 3 kts | 226° |
| 2026-05-06 15:35 | 4.69900 | -74.14427 | 8365 ft | 3 kts | 232° |
| 2026-05-06 15:36 | 4.69911 | -74.14409 | 8366 ft | 3 kts | 269° |
| 2026-05-06 15:36 | 4.69905 | -74.14392 | 8365 ft | 3 kts | 306° |
| 2026-05-06 15:36 | 4.69895 | -74.14380 | 8366 ft | 0 kts | 307° |
| 2026-05-06 15:39 | 4.69898 | -74.14383 | 8365 ft | 2 kts | 307° |
| 2026-05-06 15:39 | 4.69913 | -74.14402 | 8365 ft | 6 kts | 307° |
| 2026-05-06 15:40 | 4.69948 | -74.14449 | 8366 ft | 10 kts | 307° |
| 2026-05-06 15:40 | 4.69991 | -74.14505 | 8365 ft | 9 kts | 307° |
| 2026-05-06 15:40 | 4.70032 | -74.14560 | 8365 ft | 11 kts | 307° |
| 2026-05-06 15:40 | 4.70090 | -74.14605 | 8366 ft | 11 kts | 311° |
| 2026-05-06 15:41 | 4.70150 | -74.14656 | 8366 ft | 10 kts | 319° |
| 2026-05-06 15:41 | 4.70142 | -74.14718 | 8365 ft | 11 kts | 221° |
| 2026-05-06 15:41 | 4.70076 | -74.14767 | 8365 ft | 13 kts | 217° |
| 2026-05-06 15:41 | 4.70000 | -74.14824 | 8365 ft | 15 kts | 217° |
| 2026-05-06 15:42 | 4.69915 | -74.14887 | 8365 ft | 16 kts | 217° |
| 2026-05-06 15:42 | 4.69850 | -74.14951 | 8365 ft | 10 kts | 264° |
| 2026-05-06 15:42 | 4.69883 | -74.15016 | 8366 ft | 12 kts | 307° |
| 2026-05-06 15:42 | 4.69937 | -74.15087 | 8365 ft | 14 kts | 307° |
| 2026-05-06 15:43 | 4.70000 | -74.15169 | 8366 ft | 16 kts | 308° |
| 2026-05-06 15:43 | 4.70071 | -74.15261 | 8365 ft | 18 kts | 307° |
| 2026-05-06 15:43 | 4.70129 | -74.15340 | 8365 ft | 10 kts | 307° |
| 2026-05-06 15:43 | 4.70177 | -74.15402 | 8365 ft | 13 kts | 307° |
| 2026-05-06 15:44 | 4.70236 | -74.15480 | 8365 ft | 15 kts | 307° |
| 2026-05-06 15:44 | 4.70303 | -74.15569 | 8365 ft | 17 kts | 306° |
| 2026-05-06 15:44 | 4.70369 | -74.15658 | 8365 ft | 14 kts | 307° |
| 2026-05-06 15:44 | 4.70435 | -74.15743 | 8365 ft | 16 kts | 308° |
| 2026-05-06 15:45 | 4.70507 | -74.15837 | 8365 ft | 18 kts | 307° |
| 2026-05-06 15:45 | 4.70584 | -74.15940 | 8365 ft | 19 kts | 306° |
| 2026-05-06 15:45 | 4.70664 | -74.16046 | 8365 ft | 20 kts | 308° |
| 2026-05-06 15:45 | 4.70738 | -74.16143 | 8365 ft | 18 kts | 307° |
| 2026-05-06 15:46 | 4.70817 | -74.16244 | 8365 ft | 19 kts | 308° |
| 2026-05-06 15:46 | 4.70900 | -74.16356 | 8365 ft | 21 kts | 306° |
| 2026-05-06 15:46 | 4.70987 | -74.16473 | 8365 ft | 17 kts | 307° |
| 2026-05-06 15:46 | 4.71064 | -74.16573 | 8365 ft | 18 kts | 307° |
| 2026-05-06 15:47 | 4.71146 | -74.16680 | 8365 ft | 20 kts | 308° |
| 2026-05-06 15:47 | 4.71202 | -74.16768 | 8365 ft | 13 kts | 287° |
| 2026-05-06 15:47 | 4.71154 | -74.16827 | 8364 ft | 8 kts | 220° |
| 2026-05-06 15:47 | 4.71147 | -74.16834 | 8364 ft | 0 kts | 220° |
| 2026-05-06 15:48 | 4.71139 | -74.16840 | 8364 ft | 4 kts | 220° |
| 2026-05-06 15:48 | 4.71095 | -74.16877 | 8363 ft | 10 kts | 217° |
| 2026-05-06 15:48 | 4.71057 | -74.16903 | 8362 ft | 5 kts | 214° |
| 2026-05-06 15:49 | 4.71038 | -74.16897 | 8363 ft | 3 kts | 138° |
| 2026-05-06 15:49 | 4.71029 | -74.16886 | 8363 ft | 0 kts | 124° |
| 2026-05-06 15:49 | 4.71027 | -74.16885 | 8363 ft | 0 kts | 127° |
| 2026-05-06 15:50 | 4.70985 | -74.16830 | 8363 ft | 38 kts | 128° |
| 2026-05-06 15:50 | 4.70685 | -74.16431 | 8365 ft | 102 kts | 127° |
| 2026-05-06 15:50 | 4.70154 | -74.15730 | 8363 ft | 149 kts | 128° |
| 2026-05-06 15:51 | 4.69463 | -74.14848 | 8749 ft | 159 kts | 128° |
| 2026-05-06 15:51 | 4.68723 | -74.14004 | 9386 ft | 163 kts | 130° |
| 2026-05-06 15:51 | 4.67763 | -74.13419 | 10003 ft | 166 kts | 167° |
| 2026-05-06 15:51 | 4.66568 | -74.13620 | 10319 ft | 190 kts | 207° |
| 2026-05-06 15:52 | 4.65613 | -74.14611 | 10698 ft | 211 kts | 238° |
| 2026-05-06 15:52 | 4.65198 | -74.15515 | 10994 ft | 220 kts | 243° |
| 2026-05-06 15:52 | 4.64589 | -74.16998 | 11356 ft | 240 kts | 243° |
| 2026-05-06 15:52 | 4.63831 | -74.18537 | 11748 ft | 253 kts | 236° |
| 2026-05-06 15:53 | 4.62720 | -74.19940 | 12260 ft | 259 kts | 224° |
| 2026-05-06 15:53 | 4.61669 | -74.21419 | 13028 ft | 264 kts | 243° |
| 2026-05-06 15:53 | 4.61136 | -74.23203 | 13702 ft | 274 kts | 256° |
| 2026-05-06 15:53 | 4.60723 | -74.25151 | 13994 ft | 298 kts | 256° |
| 2026-05-06 15:54 | 4.60198 | -74.27241 | 14227 ft | 321 kts | 249° |
| 2026-05-06 15:54 | 4.59276 | -74.29350 | 14415 ft | 341 kts | 240° |
| 2026-05-06 15:54 | 4.58145 | -74.31525 | 14611 ft | 363 kts | 240° |
| 2026-05-06 15:54 | 4.56961 | -74.33826 | 14909 ft | 378 kts | 240° |
| 2026-05-06 15:55 | 4.55752 | -74.36189 | 15475 ft | 384 kts | 241° |
| 2026-05-06 15:55 | 4.54528 | -74.38582 | 16084 ft | 388 kts | 241° |
| 2026-05-06 15:55 | 4.53293 | -74.40997 | 16699 ft | 392 kts | 242° |
| 2026-05-06 15:55 | 4.52043 | -74.43442 | 17273 ft | 395 kts | 242° |
| 2026-05-06 15:56 | 4.50783 | -74.45902 | 17861 ft | 399 kts | 242° |
| 2026-05-06 15:56 | 4.49510 | -74.48388 | 18475 ft | 402 kts | 242° |
| 2026-05-06 15:56 | 4.48225 | -74.50897 | 18919 ft | 407 kts | 242° |
| 2026-05-06 15:56 | 4.46928 | -74.53430 | 19423 ft | 410 kts | 242° |
| 2026-05-06 15:57 | 4.45624 | -74.55976 | 19921 ft | 413 kts | 242° |
| 2026-05-06 15:57 | 4.44307 | -74.58547 | 20377 ft | 416 kts | 242° |
| 2026-05-06 15:57 | 4.42980 | -74.61139 | 20853 ft | 420 kts | 242° |
| 2026-05-06 15:57 | 4.41641 | -74.63752 | 21339 ft | 423 kts | 242° |
| 2026-05-06 15:58 | 4.40290 | -74.66391 | 21795 ft | 427 kts | 242° |
| 2026-05-06 15:58 | 4.38926 | -74.69052 | 22255 ft | 431 kts | 242° |
| 2026-05-06 15:58 | 4.37549 | -74.71730 | 22722 ft | 434 kts | 242° |
| 2026-05-06 15:58 | 4.36157 | -74.74429 | 23181 ft | 438 kts | 242° |
| 2026-05-06 15:59 | 4.34755 | -74.77148 | 23633 ft | 441 kts | 242° |
| 2026-05-06 15:59 | 4.33342 | -74.79887 | 24035 ft | 444 kts | 242° |
| 2026-05-06 15:59 | 4.31923 | -74.82640 | 24468 ft | 445 kts | 242° |
| 2026-05-06 15:59 | 4.30518 | -74.85366 | 24869 ft | 448 kts | 242° |
| 2026-05-06 16:00 | 4.29086 | -74.88144 | 25273 ft | 450 kts | 242° |
| 2026-05-06 16:00 | 4.27649 | -74.90934 | 25665 ft | 452 kts | 242° |
| 2026-05-06 16:00 | 4.26201 | -74.93745 | 26071 ft | 455 kts | 242° |
| 2026-05-06 16:00 | 4.24748 | -74.96564 | 26471 ft | 457 kts | 242° |
| 2026-05-06 16:01 | 4.23286 | -74.99401 | 26858 ft | 459 kts | 242° |
| 2026-05-06 16:01 | 4.21817 | -75.02251 | 27071 ft | 462 kts | 242° |
| 2026-05-06 16:01 | 4.20233 | -75.05021 | 27161 ft | 461 kts | 236° |
| 2026-05-06 16:01 | 4.18338 | -75.07632 | 27164 ft | 460 kts | 232° |
| 2026-05-06 16:02 | 4.16409 | -75.10192 | 27171 ft | 460 kts | 232° |
| 2026-05-06 16:02 | 4.14487 | -75.12757 | 27176 ft | 461 kts | 232° |
| 2026-05-06 16:02 | 4.12568 | -75.15322 | 27181 ft | 460 kts | 232° |
| 2026-05-06 16:02 | 4.10645 | -75.17894 | 27186 ft | 460 kts | 232° |
| 2026-05-06 16:03 | 4.08726 | -75.20457 | 27197 ft | 461 kts | 232° |
| 2026-05-06 16:03 | 4.06803 | -75.23027 | 27197 ft | 461 kts | 232° |
| 2026-05-06 16:03 | 4.04885 | -75.25589 | 27203 ft | 460 kts | 232° |
| 2026-05-06 16:03 | 4.02964 | -75.28154 | 27205 ft | 460 kts | 232° |
| 2026-05-06 16:04 | 4.01043 | -75.30720 | 27212 ft | 460 kts | 232° |
| 2026-05-06 16:04 | 3.99123 | -75.33283 | 27214 ft | 460 kts | 232° |
| 2026-05-06 16:04 | 3.97203 | -75.35848 | 27131 ft | 460 kts | 232° |
| 2026-05-06 16:04 | 3.95285 | -75.38409 | 27217 ft | 460 kts | 232° |
| 2026-05-06 16:05 | 3.93367 | -75.40969 | 27224 ft | 459 kts | 232° |
| 2026-05-06 16:05 | 3.91447 | -75.43533 | 27228 ft | 460 kts | 232° |
| 2026-05-06 16:05 | 3.89527 | -75.46096 | 27235 ft | 459 kts | 232° |
| 2026-05-06 16:05 | 3.87542 | -75.48598 | 27238 ft | 459 kts | 227° |
| 2026-05-06 16:06 | 3.85292 | -75.50853 | 27239 ft | 458 kts | 220° |
| 2026-05-06 16:06 | 3.82817 | -75.52855 | 27240 ft | 457 kts | 217° |
| 2026-05-06 16:06 | 3.80310 | -75.54819 | 27238 ft | 457 kts | 217° |
| 2026-05-06 16:06 | 3.77814 | -75.56786 | 27232 ft | 457 kts | 217° |
| 2026-05-06 16:07 | 3.75315 | -75.58758 | 27232 ft | 457 kts | 217° |
| 2026-05-06 16:07 | 3.72816 | -75.60730 | 27230 ft | 457 kts | 217° |
| 2026-05-06 16:07 | 3.70319 | -75.62699 | 27235 ft | 457 kts | 217° |
| 2026-05-06 16:07 | 3.67823 | -75.64667 | 27232 ft | 457 kts | 217° |
| 2026-05-06 16:08 | 3.65320 | -75.66641 | 27238 ft | 458 kts | 217° |
| 2026-05-06 16:08 | 3.62822 | -75.68610 | 27231 ft | 457 kts | 217° |
| 2026-05-06 16:08 | 3.60318 | -75.70584 | 27235 ft | 458 kts | 217° |
| 2026-05-06 16:08 | 3.57811 | -75.72560 | 27234 ft | 459 kts | 217° |
| 2026-05-06 16:09 | 3.55304 | -75.74536 | 27234 ft | 459 kts | 217° |
| 2026-05-06 16:09 | 3.52794 | -75.76512 | 27232 ft | 459 kts | 217° |
| 2026-05-06 16:09 | 3.50284 | -75.78490 | 27234 ft | 459 kts | 217° |
| 2026-05-06 16:09 | 3.47774 | -75.80467 | 27233 ft | 459 kts | 217° |
| 2026-05-06 16:10 | 3.45266 | -75.82443 | 27226 ft | 459 kts | 217° |
| 2026-05-06 16:10 | 3.42754 | -75.84423 | 27224 ft | 459 kts | 217° |
| 2026-05-06 16:10 | 3.40241 | -75.86402 | 27212 ft | 459 kts | 217° |
| 2026-05-06 16:10 | 3.37731 | -75.88378 | 27218 ft | 459 kts | 217° |
| 2026-05-06 16:11 | 3.35225 | -75.90352 | 27217 ft | 458 kts | 217° |
| 2026-05-06 16:11 | 3.32724 | -75.92322 | 27218 ft | 457 kts | 217° |
| 2026-05-06 16:11 | 3.30226 | -75.94289 | 27213 ft | 457 kts | 217° |
| 2026-05-06 16:11 | 3.27726 | -75.96257 | 27208 ft | 457 kts | 217° |
| 2026-05-06 16:12 | 3.25224 | -75.98226 | 27208 ft | 457 kts | 217° |
| 2026-05-06 16:12 | 3.22727 | -76.00193 | 27206 ft | 457 kts | 217° |
| 2026-05-06 16:12 | 3.20230 | -76.02158 | 27205 ft | 457 kts | 217° |
| 2026-05-06 16:12 | 3.17726 | -76.04129 | 27196 ft | 458 kts | 217° |
| 2026-05-06 16:13 | 3.15227 | -76.06096 | 27199 ft | 457 kts | 217° |
| 2026-05-06 16:13 | 3.12725 | -76.08066 | 27197 ft | 458 kts | 217° |
| 2026-05-06 16:13 | 3.10223 | -76.10038 | 27179 ft | 458 kts | 217° |
| 2026-05-06 16:13 | 3.07745 | -76.11988 | 26895 ft | 459 kts | 217° |
| 2026-05-06 16:14 | 3.05200 | -76.13986 | 26271 ft | 461 kts | 217° |
| 2026-05-06 16:14 | 3.02663 | -76.15979 | 25386 ft | 466 kts | 217° |
| 2026-05-06 16:14 | 3.00137 | -76.17966 | 24794 ft | 454 kts | 217° |
| 2026-05-06 16:14 | 2.97716 | -76.19871 | 24187 ft | 443 kts | 216° |
| 2026-05-06 16:15 | 2.95295 | -76.21753 | 23572 ft | 440 kts | 216° |
| 2026-05-06 16:15 | 2.92887 | -76.23612 | 23010 ft | 435 kts | 216° |
| 2026-05-06 16:15 | 2.90498 | -76.25454 | 22426 ft | 431 kts | 216° |
| 2026-05-06 16:15 | 2.88141 | -76.27274 | 21864 ft | 426 kts | 216° |
| 2026-05-06 16:16 | 2.85803 | -76.29081 | 21285 ft | 423 kts | 216° |
| 2026-05-06 16:16 | 2.83487 | -76.30873 | 20697 ft | 420 kts | 216° |
| 2026-05-06 16:16 | 2.81186 | -76.32653 | 20089 ft | 417 kts | 216° |
| 2026-05-06 16:16 | 2.78903 | -76.34420 | 19569 ft | 413 kts | 215° |
| 2026-05-06 16:17 | 2.76637 | -76.36172 | 18989 ft | 411 kts | 216° |
| 2026-05-06 16:17 | 2.74361 | -76.37933 | 18136 ft | 417 kts | 216° |
| 2026-05-06 16:17 | 2.72080 | -76.39697 | 17530 ft | 408 kts | 215° |
| 2026-05-06 16:17 | 2.69882 | -76.41399 | 17030 ft | 402 kts | 215° |
| 2026-05-06 16:18 | 2.67682 | -76.43102 | 16485 ft | 398 kts | 215° |
| 2026-05-06 16:18 | 2.65665 | -76.44988 | 15957 ft | 399 kts | 227° |
| 2026-05-06 16:18 | 2.64131 | -76.47303 | 15371 ft | 400 kts | 242° |
| 2026-05-06 16:18 | 2.63125 | -76.49885 | 14837 ft | 397 kts | 249° |
| 2026-05-06 16:19 | 2.62222 | -76.52489 | 14277 ft | 395 kts | 249° |
| 2026-05-06 16:19 | 2.61330 | -76.55049 | 13706 ft | 384 kts | 249° |
| 2026-05-06 16:19 | 2.60461 | -76.57534 | 13183 ft | 376 kts | 249° |
| 2026-05-06 16:19 | 2.59599 | -76.59993 | 12660 ft | 373 kts | 249° |
| 2026-05-06 16:20 | 2.58747 | -76.62417 | 12310 ft | 362 kts | 249° |
| 2026-05-06 16:20 | 2.57938 | -76.64723 | 12108 ft | 342 kts | 249° |
| 2026-05-06 16:20 | 2.57174 | -76.66902 | 11912 ft | 323 kts | 249° |
| 2026-05-06 16:20 | 2.56436 | -76.69003 | 11530 ft | 318 kts | 249° |
| 2026-05-06 16:21 | 2.55707 | -76.71070 | 11065 ft | 313 kts | 249° |
| 2026-05-06 16:21 | 2.55003 | -76.73072 | 10849 ft | 297 kts | 248° |
| 2026-05-06 16:21 | 2.54332 | -76.74979 | 10520 ft | 287 kts | 249° |
| 2026-05-06 16:21 | 2.53671 | -76.76851 | 10219 ft | 283 kts | 249° |
| 2026-05-06 16:22 | 2.52934 | -76.78671 | 10072 ft | 283 kts | 235° |
| 2026-05-06 16:22 | 2.51593 | -76.80062 | 9944 ft | 277 kts | 208° |
| 2026-05-06 16:22 | 2.49821 | -76.80685 | 9747 ft | 267 kts | 181° |
| 2026-05-06 16:22 | 2.48056 | -76.80459 | 9641 ft | 248 kts | 161° |
| 2026-05-06 16:23 | 2.46460 | -76.79996 | 9494 ft | 230 kts | 161° |
| 2026-05-06 16:23 | 2.45004 | -76.79568 | 9293 ft | 218 kts | 161° |
| 2026-05-06 16:23 | 2.43530 | -76.79154 | 9015 ft | 212 kts | 162° |
| 2026-05-06 16:23 | 2.42114 | -76.78777 | 8980 ft | 206 kts | 162° |
| 2026-05-06 16:24 | 2.40867 | -76.78181 | 8934 ft | 197 kts | 136° |
| 2026-05-06 16:24 | 2.40169 | -76.77081 | 8887 ft | 182 kts | 104° |
| 2026-05-06 16:24 | 2.40155 | -76.75876 | 8802 ft | 170 kts | 76° |
| 2026-05-06 16:24 | 2.40550 | -76.74811 | 8631 ft | 158 kts | 71° |
| 2026-05-06 16:25 | 2.40921 | -76.73799 | 8387 ft | 149 kts | 72° |
| 2026-05-06 16:25 | 2.41253 | -76.72852 | 8101 ft | 143 kts | 72° |
| 2026-05-06 16:25 | 2.41585 | -76.71895 | 7706 ft | 147 kts | 72° |
| 2026-05-06 16:25 | 2.41922 | -76.70926 | 7361 ft | 147 kts | 71° |
| 2026-05-06 16:26 | 2.42257 | -76.69969 | 7127 ft | 148 kts | 70° |
| 2026-05-06 16:26 | 2.42601 | -76.68993 | 6960 ft | 150 kts | 70° |
| 2026-05-06 16:26 | 2.42948 | -76.68014 | 6775 ft | 149 kts | 70° |
| 2026-05-06 16:26 | 2.43287 | -76.67058 | 6547 ft | 147 kts | 70° |
| 2026-05-06 16:27 | 2.43626 | -76.66097 | 6405 ft | 146 kts | 70° |
| 2026-05-06 16:27 | 2.43858 | -76.65440 | 6259 ft | 146 kts | 69° |
| 2026-05-06 16:27 | 2.44198 | -76.64481 | 6095 ft | 147 kts | 69° |
| 2026-05-06 16:27 | 2.44538 | -76.63524 | 5932 ft | 145 kts | 69° |
| 2026-05-06 16:28 | 2.44866 | -76.62575 | 5831 ft | 145 kts | 71° |
| 2026-05-06 16:28 | 2.45213 | -76.61636 | 5705 ft | 144 kts | 68° |
| 2026-05-06 16:28 | 2.45517 | -76.60714 | 5666 ft | 133 kts | 62° |
| 2026-05-06 16:28 | 2.45944 | -76.59762 | 6033 ft | 158 kts | 64° |
| 2026-05-06 16:29 | 2.46367 | -76.58724 | 6891 ft | 162 kts | 70° |
| 2026-05-06 16:29 | 2.46716 | -76.57653 | 7718 ft | 162 kts | 70° |
| 2026-05-06 16:29 | 2.47245 | -76.56670 | 8579 ft | 160 kts | 55° |
| 2026-05-06 16:29 | 2.48023 | -76.55872 | 9410 ft | 166 kts | 41° |
| 2026-05-06 16:30 | 2.49097 | -76.55234 | 9850 ft | 199 kts | 26° |
| 2026-05-06 16:30 | 2.50061 | -76.54961 | 9996 ft | 227 kts | 12° |
| 2026-05-06 16:30 | 2.52154 | -76.55172 | 9993 ft | 228 kts | 341° |
| 2026-05-06 16:30 | 2.53509 | -76.55972 | 9995 ft | 230 kts | 320° |
| 2026-05-06 16:31 | 2.54529 | -76.57210 | 9989 ft | 233 kts | 298° |
| 2026-05-06 16:31 | 2.55053 | -76.58736 | 9991 ft | 233 kts | 277° |
| 2026-05-06 16:31 | 2.55014 | -76.60339 | 10008 ft | 232 kts | 259° |
| 2026-05-06 16:31 | 2.54751 | -76.62042 | 10003 ft | 260 kts | 260° |
| 2026-05-06 16:32 | 2.54494 | -76.63832 | 9999 ft | 259 kts | 260° |
| 2026-05-06 16:32 | 2.54248 | -76.65620 | 9998 ft | 259 kts | 261° |
| 2026-05-06 16:32 | 2.54005 | -76.67405 | 9983 ft | 260 kts | 261° |
| 2026-05-06 16:32 | 2.53758 | -76.69197 | 9977 ft | 259 kts | 261° |
| 2026-05-06 16:33 | 2.53521 | -76.70953 | 9979 ft | 259 kts | 260° |
| 2026-05-06 16:33 | 2.53275 | -76.72746 | 9967 ft | 259 kts | 261° |
| 2026-05-06 16:33 | 2.53032 | -76.74524 | 9957 ft | 258 kts | 261° |
| 2026-05-06 16:34 | 2.52540 | -76.78101 | 9940 ft | 260 kts | 261° |
| 2026-05-06 16:34 | 2.52243 | -76.79880 | 9923 ft | 258 kts | 249° |
| 2026-05-06 16:34 | 2.51331 | -76.81383 | 9914 ft | 253 kts | 219° |
| 2026-05-06 16:34 | 2.49833 | -76.82222 | 9915 ft | 247 kts | 189° |
| 2026-05-06 16:35 | 2.48164 | -76.82198 | 9875 ft | 238 kts | 159° |
| 2026-05-06 16:35 | 2.46744 | -76.81407 | 9635 ft | 234 kts | 140° |
| 2026-05-06 16:35 | 2.45445 | -76.80423 | 9374 ft | 232 kts | 143° |
| 2026-05-06 16:35 | 2.44095 | -76.79622 | 9283 ft | 220 kts | 152° |
| 2026-05-06 16:36 | 2.42703 | -76.79024 | 9032 ft | 217 kts | 158° |
| 2026-05-06 16:36 | 2.41277 | -76.78563 | 8774 ft | 214 kts | 161° |
| 2026-05-06 16:36 | 2.39970 | -76.77899 | 8381 ft | 213 kts | 133° |
| 2026-05-06 16:36 | 2.39265 | -76.76629 | 8016 ft | 212 kts | 99° |
| 2026-05-06 16:37 | 2.39425 | -76.75177 | 7686 ft | 212 kts | 65° |
| 2026-05-06 16:37 | 2.40155 | -76.73919 | 7540 ft | 204 kts | 57° |
| 2026-05-06 16:37 | 2.40886 | -76.72784 | 7472 ft | 185 kts | 59° |
| 2026-05-06 16:37 | 2.41475 | -76.71718 | 7355 ft | 166 kts | 64° |
| 2026-05-06 16:38 | 2.41941 | -76.70707 | 7211 ft | 152 kts | 67° |
| 2026-05-06 16:38 | 2.42324 | -76.69751 | 7199 ft | 148 kts | 69° |
| 2026-05-06 16:38 | 2.42685 | -76.68777 | 7167 ft | 150 kts | 70° |
| 2026-05-06 16:38 | 2.43036 | -76.67793 | 6995 ft | 150 kts | 70° |
| 2026-05-06 16:39 | 2.43380 | -76.66817 | 6813 ft | 148 kts | 70° |
| 2026-05-06 16:39 | 2.43606 | -76.66175 | 6676 ft | 147 kts | 70° |
| 2026-05-06 16:39 | 2.43943 | -76.65215 | 6442 ft | 146 kts | 70° |
| 2026-05-06 16:39 | 2.44281 | -76.64256 | 6226 ft | 146 kts | 69° |
| 2026-05-06 16:40 | 2.44619 | -76.63303 | 5999 ft | 145 kts | 69° |
| 2026-05-06 16:40 | 2.44952 | -76.62359 | 5826 ft | 143 kts | 70° |
| 2026-05-06 16:40 | 2.45282 | -76.61420 | 5677 ft | 139 kts | 68° |
| 2026-05-06 16:40 | 2.45546 | -76.60686 | 5664 ft | 71 kts | 71° |
| 2026-05-06 16:41 | 2.45658 | -76.60356 | 5662 ft | 45 kts | 72° |
| 2026-05-06 16:41 | 2.45741 | -76.60127 | 5671 ft | 12 kts | 65° |
| 2026-05-06 16:41 | 2.45786 | -76.60073 | 5663 ft | 6 kts | 104° |
| 2026-05-06 16:41 | 2.45759 | -76.60083 | 5662 ft | 7 kts | 230° |
| 2026-05-06 16:42 | 2.45728 | -76.60143 | 5664 ft | 12 kts | 243° |
| 2026-05-06 16:42 | 2.45699 | -76.60229 | 5671 ft | 15 kts | 251° |
| 2026-05-06 16:42 | 2.45664 | -76.60333 | 5667 ft | 17 kts | 251° |
| 2026-05-06 16:42 | 2.45625 | -76.60451 | 5665 ft | 19 kts | 252° |
| 2026-05-06 16:43 | 2.45579 | -76.60582 | 5667 ft | 21 kts | 249° |
| 2026-05-06 16:43 | 2.45531 | -76.60714 | 5667 ft | 18 kts | 250° |
| 2026-05-06 16:43 | 2.45488 | -76.60837 | 5663 ft | 20 kts | 251° |
| 2026-05-06 16:43 | 2.45455 | -76.60932 | 5663 ft | 10 kts | 251° |
| 2026-05-06 16:44 | 2.45434 | -76.60991 | 5660 ft | 7 kts | 243° |
| 2026-05-06 16:44 | 2.45396 | -76.60995 | 5668 ft | 6 kts | 153° |
| 2026-05-06 16:44 | 2.45357 | -76.60982 | 5662 ft | 6 kts | 181° |
| 2026-05-06 16:44 | 2.45337 | -76.61007 | 5663 ft | 5 kts | 242° |
| 2026-05-06 16:45 | 2.45317 | -76.61008 | 5665 ft | 3 kts | 165° |
| 2026-05-06 16:45 | 2.45303 | -76.61004 | 5671 ft | 3 kts | 160° |
| 2026-05-06 16:45 | 2.45297 | -76.61001 | 5666 ft | 0 kts | 160° |
| 2026-05-06 16:45 | 2.45296 | -76.61001 | 5666 ft | 0 kts | 160° |